Time;durP1;ratioP1;P1;durP2;ratioP2;P2;SDS_P1;SDS_P2;PMS_P1;PMS_P2;Temp;Humidity;BMP_temperature;BMP_pressure;BME280_temperature;BME280_humidity;BME280_pressure;Samples;Min_cycle;Max_cycle;Signal;HPM_P1;HPM_P2
2023/10/02 00:15:53;;;;;;;13.57;6.63;;;20.50;99.90;;;;;;4591531;19;20311;-71
2023/10/02 00:17:32;;;;;;;12.82;6.45;;;20.50;99.90;;;;;;4590907;19;20002;-71
2023/10/02 00:19:18;;;;;;;13.10;6.80;;;20.60;99.90;;;;;;4591340;19;20003;-71
2023/10/02 00:21:17;;;;;;;13.70;6.50;;;20.60;99.90;;;;;;4592058;19;20084;-71
2023/10/02 00:22:47;;;;;;;12.63;7.57;;;20.60;99.90;;;;;;4590890;19;20040;-71
2023/10/02 00:24:24;;;;;;;12.70;6.60;;;20.70;99.90;;;;;;4591947;19;19999;-71
2023/10/02 00:26:03;;;;;;;14.32;6.65;;;20.70;99.90;;;;;;4590279;19;20094;-71
2023/10/02 00:27:39;;;;;;;10.60;5.90;;;20.70;99.90;;;;;;4591597;19;20430;-71
2023/10/02 00:29:14;;;;;;;10.70;6.25;;;20.70;99.90;;;;;;4590706;19;20006;-71
2023/10/02 00:30:48;;;;;;;9.70;5.47;;;20.70;99.90;;;;;;4591747;19;19999;-71
2023/10/02 00:32:35;;;;;;;11.82;5.20;;;20.70;99.90;;;;;;4592137;19;20107;-70
2023/10/02 00:34:08;;;;;;;10.20;5.45;;;20.70;99.90;;;;;;4591020;19;20040;-71
2023/10/02 00:35:52;;;;;;;10.80;5.65;;;20.70;99.90;;;;;;4590611;19;20020;-71
2023/10/02 00:37:51;;;;;;;13.05;5.43;;;20.70;99.90;;;;;;4592056;19;20364;-71
2023/10/02 00:39:25;;;;;;;10.50;6.05;;;20.70;99.90;;;;;;4590682;19;20085;-70
2023/10/02 00:41:03;;;;;;;11.25;6.15;;;20.70;99.90;;;;;;4592208;19;20002;-71
2023/10/02 00:42:38;;;;;;;10.05;5.78;;;20.70;99.90;;;;;;4590653;19;20007;-71
2023/10/02 00:44:13;;;;;;;11.48;6.53;;;20.70;99.90;;;;;;4590798;19;20032;-71
2023/10/02 00:45:57;;;;;;;12.88;6.55;;;20.70;99.90;;;;;;4590013;19;20002;-71
2023/10/02 00:47:50;;;;;;;12.70;6.13;;;20.70;99.90;;;;;;4591758;19;20007;-70
2023/10/02 00:49:35;;;;;;;9.43;6.35;;;20.70;99.90;;;;;;4590846;19;20009;-71
2023/10/02 00:51:11;;;;;;;12.52;6.63;;;20.70;99.90;;;;;;4590806;19;20006;-71
2023/10/02 00:52:56;;;;;;;13.27;6.82;;;20.70;99.90;;;;;;4590490;19;20010;-70
2023/10/02 00:54:34;;;;;;;9.32;5.60;;;20.70;99.90;;;;;;4590058;19;20010;-70
2023/10/02 00:56:24;;;;;;;10.45;6.25;;;20.70;99.90;;;;;;4590392;19;20381;-70
2023/10/02 00:58:02;;;;;;;13.73;7.18;;;20.70;99.90;;;;;;4590345;19;20080;-70
2023/10/02 00:59:38;;;;;;;12.07;6.85;;;20.70;99.90;;;;;;4590283;19;20010;-71
2023/10/02 01:01:12;;;;;;;12.43;7.28;;;20.70;99.90;;;;;;4590285;19;20006;-70
2023/10/02 01:02:49;;;;;;;12.00;7.18;;;20.70;99.90;;;;;;4591717;19;20007;-70
2023/10/02 01:04:28;;;;;;;13.68;7.20;;;20.60;99.90;;;;;;4591355;19;20302;-71
2023/10/02 01:06:05;;;;;;;13.10;7.50;;;20.60;99.90;;;;;;4590849;19;19999;-71
2023/10/02 01:07:42;;;;;;;15.27;7.60;;;20.60;99.90;;;;;;4591529;19;20446;-70
2023/10/02 01:09:18;;;;;;;14.20;7.80;;;20.60;99.90;;;;;;4591476;19;20036;-71
2023/10/02 01:10:59;;;;;;;13.18;7.45;;;20.60;99.90;;;;;;4591490;19;20073;-70
2023/10/02 01:12:43;;;;;;;11.07;7.38;;;20.60;99.90;;;;;;4590144;19;20006;-71
2023/10/02 01:14:40;;;;;;;14.60;7.82;;;20.60;99.90;;;;;;4589997;19;20017;-71
2023/10/02 01:16:13;;;;;;;12.68;7.60;;;20.60;99.90;;;;;;4590196;19;20074;-71
2023/10/02 01:17:51;;;;;;;12.73;6.85;;;20.60;99.90;;;;;;4591646;19;20452;-71
2023/10/02 01:19:25;;;;;;;12.32;7.80;;;20.60;99.90;;;;;;4589960;19;20325;-71
2023/10/02 01:21:00;;;;;;;13.43;8.23;;;20.60;99.90;;;;;;4590003;19;20003;-71
2023/10/02 01:22:44;;;;;;;16.50;10.60;;;20.60;99.90;;;;;;4591325;19;20062;-71
2023/10/02 01:24:18;;;;;;;14.80;8.82;;;20.60;99.90;;;;;;4589754;19;20007;-71
2023/10/02 01:25:58;;;;;;;13.45;8.48;;;20.60;99.90;;;;;;4589189;19;20016;-71
2023/10/02 01:27:46;;;;;;;;;;;20.60;99.90;;;;;;4591047;19;20003;-71
2023/10/02 01:29:22;;;;;;;13.48;8.38;;;20.60;99.90;;;;;;4591165;19;20211;-71
2023/10/02 01:30:56;;;;;;;13.75;7.75;;;20.60;99.90;;;;;;4589834;19;20003;-71
2023/10/02 01:32:33;;;;;;;12.50;7.68;;;20.60;99.90;;;;;;4591065;19;20006;-71
2023/10/02 01:34:06;;;;;;;10.30;6.47;;;20.50;99.90;;;;;;4591312;19;20025;-71
2023/10/02 01:35:49;;;;;;;10.93;6.88;;;20.60;99.90;;;;;;4589582;19;20003;-71
2023/10/02 01:37:33;;;;;;;12.45;6.88;;;20.50;99.90;;;;;;4590008;19;20006;-71
2023/10/02 01:39:16;;;;;;;12.77;7.40;;;20.60;99.90;;;;;;4590965;19;20058;-71
2023/10/02 01:40:54;;;;;;;13.38;6.65;;;20.60;99.90;;;;;;4594036;19;19995;-71
2023/10/02 01:42:30;;;;;;;10.18;6.60;;;20.60;99.90;;;;;;4594457;19;20086;-71
2023/10/02 01:44:07;;;;;;;10.73;5.90;;;20.50;99.90;;;;;;4595135;19;20022;-70
2023/10/02 01:45:45;;;;;;;11.10;6.78;;;20.50;99.90;;;;;;4592598;19;20017;-71
2023/10/02 01:47:20;;;;;;;9.88;6.25;;;20.50;99.90;;;;;;4595545;19;20007;-70
2023/10/02 01:48:54;;;;;;;9.75;6.78;;;20.50;99.90;;;;;;4595349;19;20003;-70
2023/10/02 01:50:29;;;;;;;11.13;6.15;;;20.50;99.90;;;;;;4595553;19;20006;-71
2023/10/02 01:52:08;;;;;;;11.65;5.68;;;20.50;99.90;;;;;;4595362;19;20006;-71
2023/10/02 01:53:43;;;;;;;9.27;5.53;;;20.50;99.90;;;;;;4595613;19;20288;-71
2023/10/02 01:55:29;;;;;;;11.23;6.72;;;20.50;99.90;;;;;;4594048;19;20002;-71
2023/10/02 01:57:06;;;;;;;11.13;6.63;;;20.60;99.90;;;;;;4595517;19;20422;-70
2023/10/02 01:58:40;;;;;;;9.77;5.80;;;20.50;99.90;;;;;;4595189;19;19999;-70
2023/10/02 02:00:15;;;;;;;12.10;6.13;;;20.50;99.90;;;;;;4593765;19;20429;-71
2023/10/02 02:01:54;;;;;;;11.02;6.53;;;20.50;99.90;;;;;;4594810;19;20006;-71
2023/10/02 02:03:28;;;;;;;9.40;6.00;;;20.50;99.90;;;;;;4593778;19;20014;-71
2023/10/02 02:05:04;;;;;;;12.27;6.10;;;20.50;99.90;;;;;;4593018;19;20010;-71
2023/10/02 02:06:51;;;;;;;10.52;5.97;;;20.50;99.90;;;;;;4593271;19;20007;-70
2023/10/02 02:08:26;;;;;;;12.18;6.35;;;20.50;99.90;;;;;;4593762;19;20493;-71
2023/10/02 02:10:02;;;;;;;10.75;5.93;;;20.50;99.90;;;;;;4594894;19;20021;-71
2023/10/02 02:11:37;;;;;;;11.52;6.82;;;20.50;99.90;;;;;;4593926;19;20421;-71
2023/10/02 02:13:11;;;;;;;10.65;6.22;;;20.50;99.90;;;;;;4594549;19;20020;-71
2023/10/02 02:14:51;;;;;;;13.32;7.05;;;20.50;99.90;;;;;;4593981;19;20021;-71
2023/10/02 02:16:34;;;;;;;10.27;6.38;;;20.50;99.90;;;;;;4593548;19;20007;-71
2023/10/02 02:18:08;;;;;;;11.75;6.60;;;20.50;99.90;;;;;;4593805;19;20023;-71
2023/10/02 02:19:48;;;;;;;10.30;5.75;;;20.50;99.90;;;;;;4594806;19;20003;-71
2023/10/02 02:21:25;;;;;;;13.13;6.35;;;20.50;99.90;;;;;;4594840;19;20006;-71
2023/10/02 02:23:07;;;;;;;11.45;6.72;;;20.50;99.90;;;;;;4593402;19;20006;-71
2023/10/02 02:24:44;;;;;;;9.23;5.70;;;20.50;99.90;;;;;;4593935;19;20010;-71
2023/10/02 02:26:22;;;;;;;10.57;6.50;;;20.50;99.90;;;;;;4593637;19;20027;-71
2023/10/02 02:27:56;;;;;;;11.98;6.47;;;20.50;99.90;;;;;;4594652;19;20361;-71
2023/10/02 02:29:29;;;;;;;9.95;5.78;;;20.50;99.90;;;;;;4594811;19;20003;-71
2023/10/02 02:31:05;;;;;;;12.38;5.97;;;20.50;99.90;;;;;;4594584;19;20011;-71
2023/10/02 02:32:52;;;;;;;10.55;5.72;;;20.50;99.90;;;;;;4594758;19;20022;-71
2023/10/02 02:34:26;;;;;;;15.00;7.30;;;20.50;99.90;;;;;;4594190;19;20400;-71
2023/10/02 02:36:06;;;;;;;11.57;6.32;;;20.50;99.90;;;;;;4594805;19;20465;-71
2023/10/02 02:37:41;;;;;;;11.65;6.40;;;20.50;99.90;;;;;;4594635;19;20013;-71
2023/10/02 02:39:18;;;;;;;10.75;5.82;;;20.50;99.90;;;;;;4593333;19;20013;-71
2023/10/02 02:41:05;;;;;;;10.85;6.00;;;20.50;99.90;;;;;;4594090;19;20090;-71
2023/10/02 02:42:41;;;;;;;10.05;5.57;;;20.50;99.90;;;;;;4592943;19;20010;-70
2023/10/02 02:46:17;;;;;;;10.30;5.95;;;20.50;99.90;;;;;;4592114;19;20007;-71
2023/10/02 02:47:54;;;;;;;10.40;6.38;;;20.50;99.90;;;;;;4594300;19;20006;-71
2023/10/02 02:49:29;;;;;;;11.43;6.43;;;20.50;99.90;;;;;;4594204;19;20005;-71
2023/10/02 02:51:14;;;;;;;9.45;5.78;;;20.50;99.90;;;;;;4593632;19;20002;-71
2023/10/02 02:53:16;;;;;;;10.63;6.10;;;20.50;99.90;;;;;;4594090;19;20006;-70
2023/10/02 02:54:44;;;;;;;11.73;5.95;;;20.50;99.90;;;;;;4593615;19;20029;-71
2023/10/02 02:56:22;;;;;;;7.55;5.15;;;20.50;99.90;;;;;;4594033;19;20082;-71
2023/10/02 02:57:57;;;;;;;9.55;5.35;;;20.50;99.90;;;;;;4593986;19;20013;-71
2023/10/02 02:59:31;;;;;;;8.95;5.40;;;20.50;99.90;;;;;;4593832;19;19999;-71
2023/10/02 03:01:13;;;;;;;10.02;5.90;;;20.50;99.90;;;;;;4592627;19;19999;-71
2023/10/02 03:02:48;;;;;;;11.38;5.63;;;20.50;99.90;;;;;;4593941;19;20019;-71
2023/10/02 03:04:22;;;;;;;10.50;6.15;;;20.50;99.90;;;;;;4592592;19;20006;-71
2023/10/02 03:05:58;;;;;;;9.57;6.10;;;20.50;99.90;;;;;;4592951;19;20095;-70
2023/10/02 03:07:36;;;;;;;10.35;6.13;;;20.50;99.90;;;;;;4594085;19;19998;-70
2023/10/02 03:09:10;;;;;;;10.52;5.85;;;20.50;99.90;;;;;;4592261;19;20010;-71
2023/10/02 03:10:57;;;;;;;8.07;5.25;;;20.50;99.90;;;;;;4592396;19;20474;-71
2023/10/02 03:12:34;;;;;;;11.98;6.30;;;20.50;99.90;;;;;;4593525;19;20007;-71
2023/10/02 03:14:12;;;;;;;9.50;6.20;;;20.50;99.90;;;;;;4593549;19;20443;-71
2023/10/02 03:15:48;;;;;;;10.27;6.40;;;20.50;99.90;;;;;;4592220;19;20067;-70
2023/10/02 03:17:28;;;;;;;11.13;5.82;;;20.50;99.90;;;;;;4593627;19;20003;-71
2023/10/02 03:19:03;;;;;;;11.25;6.03;;;20.50;99.90;;;;;;4593574;19;20030;-71
2023/10/02 03:20:43;;;;;;;10.00;5.97;;;20.50;99.90;;;;;;4593552;19;20006;-71
2023/10/02 03:22:17;;;;;;;12.00;6.63;;;20.50;99.90;;;;;;4593562;19;19999;-71
2023/10/02 03:23:58;;;;;;;13.18;6.72;;;20.50;99.90;;;;;;4593374;19;20007;-71
2023/10/02 03:25:41;;;;;;;11.45;6.10;;;20.50;99.90;;;;;;4590876;19;20306;-71
2023/10/02 03:27:15;;;;;;;9.40;6.28;;;20.40;99.90;;;;;;4592184;19;20054;-71
2023/10/02 03:28:49;;;;;;;10.27;6.35;;;20.40;99.90;;;;;;4593094;19;20021;-71
2023/10/02 03:30:38;;;;;;;10.35;5.60;;;20.40;99.90;;;;;;4593377;19;19999;-71
2023/10/02 03:32:12;;;;;;;10.48;6.20;;;20.50;99.90;;;;;;4593321;19;20006;-71
2023/10/02 03:33:46;;;;;;;9.85;6.00;;;20.40;99.90;;;;;;4591843;19;19999;-71
2023/10/02 03:35:22;;;;;;;10.07;6.85;;;20.50;99.90;;;;;;4592037;19;20002;-71
2023/10/02 03:37:21;;;;;;;10.60;6.20;;;20.40;99.90;;;;;;4593154;19;20002;-70
2023/10/02 03:38:57;;;;;;;11.35;6.72;;;20.40;99.90;;;;;;4591759;19;20011;-71
2023/10/02 03:40:33;;;;;;;10.90;6.15;;;20.50;99.90;;;;;;4591860;19;20119;-71
2023/10/02 03:42:12;;;;;;;8.43;5.65;;;20.50;99.90;;;;;;4593055;19;20017;-71
2023/10/02 03:43:50;;;;;;;8.63;6.18;;;20.50;99.90;;;;;;4593364;19;20002;-70
2023/10/02 03:45:38;;;;;;;10.75;6.45;;;20.50;99.90;;;;;;4590669;19;20059;-71
2023/10/02 03:47:15;;;;;;;8.70;5.95;;;20.50;99.90;;;;;;4591986;19;20438;-71
2023/10/02 03:48:58;;;;;;;11.77;6.60;;;20.50;99.90;;;;;;4591833;19;20010;-71
2023/10/02 03:50:37;;;;;;;10.45;6.47;;;20.60;99.90;;;;;;4591633;19;20015;-74
2023/10/02 03:52:16;;;;;;;11.23;6.30;;;20.60;99.90;;;;;;4591594;19;20444;-71
2023/10/02 03:54:10;;;;;;;11.57;6.60;;;20.70;99.90;;;;;;4591897;19;20006;-71
2023/10/02 03:55:47;;;;;;;11.80;6.18;;;20.80;99.90;;;;;;4592883;19;20011;-71
2023/10/02 03:59:14;;;;;;;11.07;6.78;;;20.90;99.90;;;;;;4592737;19;20428;-71
2023/10/02 04:00:51;;;;;;;10.73;6.80;;;21.00;99.90;;;;;;4591765;19;20006;-71
2023/10/02 04:02:26;;;;;;;14.68;6.55;;;21.10;99.90;;;;;;4591161;19;20425;-71
2023/10/02 04:04:33;;;;;;;12.70;7.25;;;21.10;99.90;;;;;;4591350;19;20006;-71
2023/10/02 04:06:05;;;;;;;11.75;6.72;;;21.20;99.90;;;;;;4590334;19;20010;-71
2023/10/02 04:07:39;;;;;;;12.20;7.80;;;21.20;99.90;;;;;;4591343;19;20027;-73
2023/10/02 04:09:27;;;;;;;10.98;6.43;;;21.30;99.90;;;;;;4592319;19;20007;-70
2023/10/02 04:11:05;;;;;;;9.32;7.90;;;21.30;99.90;;;;;;4591228;19;20088;-71
2023/10/02 04:12:50;;;;;;;10.13;7.30;;;20.70;99.90;;;;;;4592761;19;20007;-71
2023/10/02 04:14:33;;;;;;;10.55;7.50;;;19.10;99.90;;;;;;4590969;19;20002;-71
2023/10/02 04:16:28;;;;;;;11.25;8.43;;;18.20;99.90;;;;;;4591138;19;20002;-71
2023/10/02 04:18:02;;;;;;;10.07;7.65;;;17.80;99.90;;;;;;4591139;19;20082;-70
2023/10/02 04:19:40;;;;;;;12.40;8.75;;;17.60;99.90;;;;;;4592288;19;19999;-70
2023/10/02 04:21:19;;;;;;;11.60;8.90;;;17.50;99.90;;;;;;4592331;19;20070;-70
2023/10/02 04:22:54;;;;;;;10.60;8.15;;;17.40;99.90;;;;;;4591312;19;20032;-70
2023/10/02 04:24:28;;;;;;;13.18;10.20;;;17.30;99.90;;;;;;4591754;19;20006;-70
2023/10/02 04:26:05;;;;;;;14.75;11.15;;;17.30;99.90;;;;;;4591793;19;20321;-70
2023/10/02 04:28:27;;;;;;;15.27;10.52;;;17.30;99.90;;;;;;4592240;19;19998;-70
2023/10/02 04:29:37;;;;;;;12.82;9.98;;;17.30;99.90;;;;;;4591315;19;20010;-70
2023/10/02 04:31:20;;;;;;;11.27;8.75;;;17.30;99.90;;;;;;4592782;19;20011;-70
2023/10/02 04:33:07;;;;;;;10.52;8.48;;;17.30;99.90;;;;;;4592162;19;20006;-70
2023/10/02 04:34:57;;;;;;;10.27;8.85;;;17.30;99.90;;;;;;4591738;19;20003;-70
2023/10/02 04:36:34;;;;;;;11.25;8.95;;;17.30;99.90;;;;;;4592101;19;20006;-70
2023/10/02 04:38:09;;;;;;;11.07;8.60;;;17.30;99.90;;;;;;4592098;19;20310;-70
2023/10/02 04:40:14;;;;;;;12.98;8.98;;;17.30;99.90;;;;;;4590689;19;19998;-70
2023/10/02 04:42:09;;;;;;;11.75;8.43;;;17.30;99.90;;;;;;4590697;19;20460;-70
2023/10/02 04:43:37;;;;;;;13.13;9.93;;;17.30;99.90;;;;;;4592051;19;20291;-70
2023/10/02 04:45:20;;;;;;;13.23;9.90;;;17.30;99.90;;;;;;4589714;19;20312;-70
2023/10/02 04:46:55;;;;;;;13.15;10.05;;;17.30;99.90;;;;;;4590565;19;20010;-70
2023/10/02 04:48:39;;;;;;;14.50;10.73;;;17.30;99.90;;;;;;4590500;19;20009;-70
2023/10/02 04:51:53;;;;;;;15.45;11.00;;;17.30;99.90;;;;;;4590577;19;20042;-70
2023/10/02 04:53:28;;;;;;;14.45;11.43;;;17.30;99.90;;;;;;4590762;19;20352;-70
2023/10/02 04:55:07;;;;;;;14.32;10.60;;;17.30;99.90;;;;;;4590025;19;20024;-70
2023/10/02 04:56:46;;;;;;;15.38;11.80;;;17.30;99.90;;;;;;4591450;19;20018;-70
2023/10/02 04:58:20;;;;;;;15.93;12.00;;;17.20;99.90;;;;;;4590685;19;20007;-70
2023/10/02 04:59:55;;;;;;;16.60;11.70;;;17.20;99.90;;;;;;4591348;19;20020;-70
2023/10/02 05:01:34;;;;;;;15.80;11.52;;;17.20;99.90;;;;;;4590391;19;19998;-70
2023/10/02 05:03:25;;;;;;;14.68;10.38;;;17.20;99.90;;;;;;4591429;19;20014;-70
2023/10/02 05:05:00;;;;;;;14.30;10.48;;;17.20;99.90;;;;;;4589541;19;20017;-70
2023/10/02 05:06:44;;;;;;;13.25;10.50;;;17.20;99.90;;;;;;4589549;19;20336;-70
2023/10/02 05:08:29;;;;;;;12.65;10.68;;;17.10;99.90;;;;;;4590527;19;20019;-70
2023/10/02 05:10:06;;;;;;;12.93;10.02;;;17.20;99.90;;;;;;4590158;19;20006;-70
2023/10/02 05:12:03;;;;;;;12.77;10.10;;;17.20;99.90;;;;;;4590277;19;19998;-70
2023/10/02 05:15:30;;;;;;;11.77;9.43;;;17.10;99.90;;;;;;4592925;19;20059;-70
2023/10/02 05:17:50;;;;;;;11.52;9.35;;;17.10;99.90;;;;;;4595077;19;20010;-70
2023/10/02 05:18:59;;;;;;;12.60;9.82;;;17.20;99.90;;;;;;4594942;19;20010;-70
2023/10/02 05:20:38;;;;;;;12.10;7.88;;;17.20;99.90;;;;;;4594642;19;19999;-70
2023/10/02 05:22:16;;;;;;;10.60;7.72;;;17.70;99.90;;;;;;4594650;19;20003;-70
2023/10/02 05:24:00;;;;;;;11.95;7.60;;;18.10;99.90;;;;;;4596023;19;20007;-70
2023/10/02 05:25:37;;;;;;;14.23;7.65;;;18.50;99.90;;;;;;4594222;19;20409;-70
2023/10/02 05:27:27;;;;;;;14.95;7.88;;;18.80;99.90;;;;;;4596183;19;20028;-70
2023/10/02 05:29:06;;;;;;;10.98;6.85;;;19.00;99.90;;;;;;4594581;19;20002;-70
2023/10/02 05:30:43;;;;;;;10.90;7.72;;;19.30;99.90;;;;;;4595794;19;20029;-70
2023/10/02 05:32:23;;;;;;;10.57;6.47;;;19.50;99.90;;;;;;4594469;19;20013;-70
2023/10/02 05:33:57;;;;;;;12.40;6.45;;;19.60;99.90;;;;;;4595505;19;20039;-70
2023/10/02 05:35:31;;;;;;;10.32;6.63;;;19.70;99.90;;;;;;4592840;19;20164;-70
2023/10/02 05:39:04;;;;;;;8.48;5.50;;;19.90;99.90;;;;;;4595483;19;20047;-70
2023/10/02 05:40:38;;;;;;;10.25;6.07;;;19.90;99.90;;;;;;4595307;19;20020;-70
2023/10/02 05:42:16;;;;;;;9.52;6.03;;;20.00;99.90;;;;;;4595632;19;20010;-70
2023/10/02 05:43:56;;;;;;;9.10;5.50;;;20.10;99.90;;;;;;4595581;19;20408;-70
2023/10/02 05:45:40;;;;;;;10.35;5.88;;;20.10;99.90;;;;;;4594340;19;20474;-70
2023/10/02 05:47:16;;;;;;;9.65;5.88;;;20.20;99.90;;;;;;4594181;19;20030;-70
2023/10/02 05:49:00;;;;;;;9.77;6.00;;;20.20;99.90;;;;;;4595140;19;20013;-70
2023/10/02 05:50:40;;;;;;;10.48;6.25;;;20.30;99.90;;;;;;4594086;19;20014;-70
2023/10/02 05:52:19;;;;;;;10.02;6.43;;;20.30;99.90;;;;;;4594065;19;20014;-72
2023/10/02 05:53:55;;;;;;;8.13;5.65;;;20.30;99.90;;;;;;4595627;19;20112;-88
2023/10/02 05:55:56;;;;;;;10.45;6.65;;;20.30;99.90;;;;;;4591882;19;20381;-91
2023/10/02 05:58:02;;;;;;;11.13;6.10;;;20.40;99.90;;;;;;4594406;19;20052;-87
2023/10/02 05:59:54;;;;;;;11.95;6.32;;;20.40;99.90;;;;;;4594078;19;20014;-89
2023/10/02 06:01:59;;;;;;;10.13;6.45;;;20.50;99.90;;;;;;4593231;19;20030;-90
2023/10/02 06:04:31;;;;;;;;;;;;;;;;;;;;;
2023/10/02 06:06:47;;;;;;;8.80;6.45;;;20.50;99.90;;;;;;4591901;19;20014;-92
2023/10/02 06:08:56;;;;;;;9.63;6.30;;;20.50;99.90;;;;;;4592369;19;20006;-90
2023/10/02 06:10:41;;;;;;;12.02;6.30;;;20.50;99.90;;;;;;4592555;19;20027;-88
2023/10/02 06:12:24;;;;;;;10.52;6.10;;;20.60;99.90;;;;;;4592505;19;20006;-88
2023/10/02 06:14:10;;;;;;;10.25;6.03;;;20.60;99.90;;;;;;4592342;19;20081;-87
2023/10/02 06:15:52;;;;;;;10.05;6.68;;;20.60;99.90;;;;;;4590708;19;20021;-88
2023/10/02 06:17:32;;;;;;;8.85;5.88;;;20.60;99.90;;;;;;4592317;19;20002;-88
2023/10/02 06:19:07;;;;;;;11.85;5.90;;;20.60;99.90;;;;;;4592289;19;20296;-88
2023/10/02 06:20:57;;;;;;;11.80;7.05;;;20.60;99.90;;;;;;4592240;19;20311;-88
2023/10/02 06:22:42;;;;;;;;;;;;;;;;;;;;;
2023/10/02 06:24:19;;;;;;;10.07;6.43;;;20.60;99.90;;;;;;4592002;19;20006;-88
2023/10/02 06:25:54;;;;;;;11.80;6.03;;;20.60;99.90;;;;;;4590328;19;20017;-87
2023/10/02 06:27:41;;;;;;;10.95;6.15;;;20.60;99.90;;;;;;4592112;19;20062;-87
2023/10/02 06:29:20;;;;;;;8.60;5.72;;;20.70;99.90;;;;;;4592411;19;20302;-87
2023/10/02 06:30:56;;;;;;;12.32;6.80;;;20.60;99.90;;;;;;4592310;19;20002;-88
2023/10/02 06:32:32;;;;;;;12.65;7.18;;;20.70;99.90;;;;;;4593081;19;20094;-88
2023/10/02 06:34:06;;;;;;;10.85;7.20;;;20.70;99.90;;;;;;4592219;19;20058;-89
2023/10/02 06:35:44;;;;;;;10.85;6.82;;;20.70;99.90;;;;;;4590057;19;20484;-89
2023/10/02 06:37:24;;;;;;;8.85;6.43;;;20.70;99.90;;;;;;4591633;19;20041;-89
2023/10/02 06:38:58;;;;;;;10.95;6.60;;;20.70;99.90;;;;;;4591558;19;20018;-89
2023/10/02 06:40:34;;;;;;;11.60;6.10;;;20.70;99.90;;;;;;4591559;19;20034;-90
2023/10/02 06:42:09;;;;;;;10.40;6.07;;;20.70;99.90;;;;;;4591929;19;20005;-90
2023/10/02 06:43:45;;;;;;;12.07;7.18;;;20.70;99.90;;;;;;4592608;19;20010;-90
2023/10/02 06:45:21;;;;;;;12.93;7.25;;;20.70;99.90;;;;;;4591468;19;20014;-89
2023/10/02 06:49:29;;;;;;;;;;;;;;;;;;;;;
2023/10/02 06:51:43;;;;;;;10.50;6.40;;;20.70;99.90;;;;;;4591579;19;20013;-92
2023/10/02 06:53:43;;;;;;;11.63;5.90;;;20.70;99.90;;;;;;4591869;19;20014;-90
2023/10/02 06:55:34;;;;;;;;;;;;;;;;;;;;;
2023/10/02 06:57:11;;;;;;;9.93;6.20;;;20.70;99.90;;;;;;4592581;19;20041;-89
2023/10/02 06:58:54;;;;;;;9.05;5.57;;;20.70;99.90;;;;;;4591543;19;20016;-90
2023/10/02 07:00:54;;;;;;;11.45;6.45;;;20.70;99.90;;;;;;4592165;19;20002;-90
2023/10/02 07:02:56;;;;;;;8.50;6.00;;;20.70;99.90;;;;;;4591991;19;20027;-91
2023/10/02 07:04:40;;;;;;;10.98;6.70;;;20.70;99.90;;;;;;4591281;19;20074;-90
2023/10/02 07:06:48;;;;;;;9.60;5.82;;;20.70;99.90;;;;;;4591142;19;20434;-91
2023/10/02 07:08:47;;;;;;;8.32;5.43;;;20.70;99.90;;;;;;4590536;19;20011;-83
2023/10/02 07:10:23;;;;;;;10.02;5.45;;;20.70;99.90;;;;;;4591338;19;20034;-82
2023/10/02 07:12:09;;;;;;;9.68;6.00;;;20.80;99.90;;;;;;4590388;19;20441;-82
2023/10/02 07:13:56;;;;;;;8.35;5.43;;;20.80;99.90;;;;;;4591201;19;20026;-82
2023/10/02 07:15:38;;;;;;;10.93;6.97;;;20.70;99.90;;;;;;4589436;19;20010;-81
2023/10/02 07:17:23;;;;;;;7.97;5.35;;;20.70;99.90;;;;;;4591281;19;20006;-88
2023/10/02 07:19:15;;;;;;;8.95;5.78;;;20.80;99.90;;;;;;4591857;19;20071;-90
2023/10/02 07:21:01;;;;;;;11.93;6.05;;;20.80;99.90;;;;;;4591817;19;20066;-91
2023/10/02 07:22:43;;;;;;;10.88;6.15;;;20.80;99.90;;;;;;4592746;19;20031;-91
2023/10/02 07:28:19;;;;;;;9.20;5.85;;;20.80;99.90;;;;;;4592645;19;19999;-92
2023/10/02 07:29:58;;;;;;;10.17;5.83;;;20.80;99.90;;;;;;4592723;19;20022;-86
2023/10/02 07:31:44;;;;;;;8.77;5.47;;;20.80;99.90;;;;;;4592270;19;20393;-92
2023/10/02 07:33:26;;;;;;;13.50;5.00;;;20.80;99.90;;;;;;4592396;19;20010;-88
2023/10/02 07:35:33;;;;;;;11.27;5.43;;;20.90;99.90;;;;;;4590837;19;20025;-88
2023/10/02 07:37:13;;;;;;;8.80;5.10;;;20.90;99.90;;;;;;4591311;19;20323;-89
2023/10/02 07:39:20;;;;;;;8.77;4.70;;;21.00;99.90;;;;;;4591351;19;20454;-87
2023/10/02 07:41:35;;;;;;;8.90;4.45;;;21.00;99.90;;;;;;4592258;19;20014;-94
2023/10/02 07:43:28;;;;;;;8.52;4.97;;;21.10;99.90;;;;;;4592452;19;20010;-91
2023/10/02 07:46:14;;;;;;;10.32;4.60;;;21.10;99.90;;;;;;4591794;19;20010;-95
2023/10/02 07:50:46;;;;;;;8.27;4.47;;;21.10;99.90;;;;;;4592804;19;20010;-91
2023/10/02 07:52:49;;;;;;;6.93;4.45;;;21.10;99.90;;;;;;4593939;19;20312;-90
2023/10/02 08:08:20;;;;;;;8.45;4.75;;;21.00;99.90;;;;;;4576646;19;20027;-94
2023/10/02 08:10:29;;;;;;;8.02;5.28;;;21.00;99.90;;;;;;4589627;19;20287;-94
2023/10/02 08:14:41;;;;;;;8.48;5.07;;;21.00;99.90;;;;;;4591099;19;20011;-93
2023/10/02 08:16:33;;;;;;;8.43;5.22;;;21.00;99.90;;;;;;4591715;19;20007;-87
2023/10/02 08:18:23;;;;;;;7.30;4.93;;;21.00;99.90;;;;;;4591217;19;20006;-90
2023/10/02 08:22:51;;;;;;;9.63;4.93;;;21.00;99.90;;;;;;4588876;19;20099;-96
2023/10/02 08:27:04;;;;;;;9.50;4.78;;;21.00;99.90;;;;;;4590740;19;20010;-93
2023/10/02 08:29:09;;;;;;;7.55;4.22;;;21.00;99.90;;;;;;4592871;19;20026;-93
2023/10/02 08:31:33;;;;;;;7.57;4.03;;;21.00;99.90;;;;;;4590364;19;20051;-92
2023/10/02 08:37:54;;;;;;;6.28;3.53;;;21.10;99.90;;;;;;4593220;19;19995;-94
2023/10/02 08:46:05;;;;;;;6.25;3.30;;;21.40;99.90;;;;;;4589200;19;20026;-87
2023/10/02 08:48:21;;;;;;;6.32;4.18;;;21.40;99.90;;;;;;4592132;19;20089;-94
2023/10/02 08:50:32;;;;;;;7.07;4.22;;;21.30;99.90;;;;;;4597114;19;20034;-92
2023/10/02 08:52:52;;;;;;;7.78;5.30;;;21.30;99.90;;;;;;4599343;19;20382;-94
2023/10/02 08:54:29;;;;;;;7.38;4.95;;;21.20;99.90;;;;;;4595819;19;20311;-89
2023/10/02 08:56:21;;;;;;;7.70;4.70;;;21.20;99.90;;;;;;4597592;19;20006;-91
2023/10/02 08:58:15;;;;;;;6.82;4.47;;;21.20;99.90;;;;;;4597674;19;20014;-90
2023/10/02 09:00:13;;;;;;;7.93;4.43;;;21.20;99.90;;;;;;4598042;19;20007;-90
2023/10/02 09:01:51;;;;;;;7.85;4.70;;;21.20;99.90;;;;;;4597357;19;20078;-91
2023/10/02 09:03:47;;;;;;;8.77;5.60;;;21.20;99.90;;;;;;4597445;19;20107;-90
2023/10/02 09:05:36;;;;;;;7.95;4.95;;;21.20;99.90;;;;;;4596112;19;20011;-91
2023/10/02 09:07:28;;;;;;;8.65;5.72;;;21.10;99.90;;;;;;4594990;19;20316;-91
2023/10/02 09:09:16;;;;;;;7.35;4.93;;;21.10;99.90;;;;;;4597679;19;20018;-90
2023/10/02 09:11:15;;;;;;;9.02;5.35;;;21.10;99.90;;;;;;4597969;19;20007;-91
2023/10/02 09:13:34;;;;;;;7.53;4.40;;;21.10;99.90;;;;;;4597499;19;20003;-90
2023/10/02 09:15:25;;;;;;;5.82;3.97;;;21.10;99.90;;;;;;4596243;19;20039;-91
2023/10/02 09:17:22;;;;;;;9.65;5.18;;;21.10;99.90;;;;;;4596821;19;20031;-90
2023/10/02 09:19:28;;;;;;;8.32;4.43;;;21.10;99.90;;;;;;4597072;19;20110;-91
2023/10/02 09:21:23;;;;;;;8.30;4.90;;;21.10;99.90;;;;;;4596751;19;20385;-90
2023/10/02 09:23:08;;;;;;;7.63;4.30;;;21.10;99.90;;;;;;4595806;19;20022;-90
2023/10/02 09:27:30;;;;;;;6.65;4.10;;;21.10;99.90;;;;;;4594229;19;20453;-88
2023/10/02 09:29:12;;;;;;;6.32;3.83;;;21.10;99.90;;;;;;4597257;19;20109;-92
2023/10/02 09:30:49;;;;;;;10.10;4.35;;;21.10;99.90;;;;;;4596082;19;20010;-89
2023/10/02 09:33:05;;;;;;;8.18;4.75;;;21.10;99.90;;;;;;4596794;19;20076;-92
2023/10/02 09:35:32;;;;;;;6.40;4.22;;;21.10;99.90;;;;;;4595655;19;20014;-90
2023/10/02 09:38:22;;;;;;;7.25;4.10;;;21.10;99.90;;;;;;4592634;19;20119;-71
2023/10/02 09:41:18;;;;;;;5.88;3.97;;;21.10;99.90;;;;;;4591377;19;20010;-69
2023/10/02 09:42:48;;;;;;;6.65;3.70;;;21.10;99.90;;;;;;4592316;19;20305;-69
2023/10/02 09:45:30;;;;;;;;;;;21.10;99.90;;;;;;4591638;19;20018;-69
2023/10/02 09:48:05;;;;;;;8.55;4.30;;;21.10;99.90;;;;;;4591326;19;20235;-69
2023/10/02 09:50:26;;;;;;;7.55;4.20;;;21.10;99.90;;;;;;4590949;19;20022;-69
2023/10/02 09:52:11;;;;;;;8.07;4.70;;;21.10;99.90;;;;;;4592800;19;20435;-69
2023/10/02 09:54:06;;;;;;;7.40;4.10;;;21.10;99.90;;;;;;4592809;19;20007;-69
2023/10/02 09:55:56;;;;;;;7.32;4.20;;;21.20;99.90;;;;;;4591084;19;20010;-70
2023/10/02 09:57:49;;;;;;;5.60;3.80;;;21.30;99.90;;;;;;4592887;19;20422;-70
2023/10/02 09:59:23;;;;;;;9.00;4.65;;;21.50;99.90;;;;;;4592631;19;20007;-70
2023/10/02 10:03:22;;;;;;;8.20;3.88;;;21.50;99.90;;;;;;4592608;19;20006;-70
2023/10/02 10:07:09;;;;;;;7.97;4.45;;;21.60;99.90;;;;;;4591530;19;20482;-69
2023/10/02 10:10:58;;;;;;;7.40;3.95;;;21.60;99.90;;;;;;4592838;19;20011;-70
2023/10/02 10:14:43;;;;;;;6.68;4.00;;;21.50;99.90;;;;;;4591538;19;20031;-70
2023/10/02 10:16:19;;;;;;;6.32;3.60;;;21.60;99.90;;;;;;4592502;19;20046;-70
2023/10/02 10:17:56;;;;;;;5.75;3.38;;;21.60;99.90;;;;;;4592485;19;20006;-69
2023/10/02 10:19:31;;;;;;;5.97;3.65;;;21.70;99.90;;;;;;4592416;19;20124;-69